Kezdőlap
METAR-TAF:

METAR-TAF

Repülőterek :

Cottonwood Pass, Colorado, Amerikai Egyesült Államok

földrajzi szélesség: 38-46-57N, földrajzi hosszúság: 106-13-05W, magasság: 2995 m

Jelenlegi meteorológiai megfigyelések

A jelentés 31 perccel ezelõtt készült, 00:48 UTC
Szélcsend
Hőmérséklet 5°C
Páratartalom 41%
Légköri nyomás 1014 hPa
Látótávolság: 16.1 km
Szórványos felhőzet 6000 lábon
Szakadozott felhőzet 7000 lábon
Szakadozott felhőzet 9000 lábon

METAR: K7BM 050048Z AUTO 00000KT 10SM SCT060 BKN070 BKN090 05/M07 A2993 RMK AO2

Idő: 19:19 (01:19 UTC)


TAF: hiányzik

Meteorológiai megfigyelések és előrejelzések több, mint 4000 repülőtéren (METAR és TAF jelentéseket).

A térképen piros és sárga pontok jelzik az elérhető meteorológiai állomásokat.

Mozgassa az egeret a pont fölött, hogy megjelenjen az állomás neve.

Azután kattintson az időjárási megfigyelések és előrejelzések megtekintéséhez.

A térkép megváltoztatása: kattintson a fekete keresztel jelölt zöld gombra ráközelítéshez, a vonallal jelölt zöld gombra távolításhoz, vagy a zöld nyilakra a szomszédos térképek eléréséhez.


METAR-TAF: